Time;durP1;ratioP1;P1;durP2;ratioP2;P2;SDS_P1;SDS_P2;PMS_P1;PMS_P2;Temp;Humidity;BMP_temperature;BMP_pressure;BME280_temperature;BME280_humidity;BME280_pressure;Samples;Min_cycle;Max_cycle;Signal;HPM_P1;HPM_P2
2022/12/28 00:00:07;;;;;;;8.63;4.15;;;;;;;-0.26;100.00;99904.59;5130600;27;20051;-78
2022/12/28 00:02:34;;;;;;;13.52;4.43;;;;;;;-0.22;100.00;99890.94;5126881;27;20324;-78
2022/12/28 00:05:00;;;;;;;8.25;3.83;;;;;;;-0.13;100.00;99889.50;5122594;27;20155;-78
2022/12/28 00:07:27;;;;;;;6.65;3.80;;;;;;;-0.11;100.00;99892.06;5128133;27;20516;-78
2022/12/28 00:09:53;;;;;;;9.52;5.15;;;;;;;-0.20;100.00;99873.00;5127522;27;20065;-78
2022/12/28 00:12:21;;;;;;;11.73;4.97;;;;;;;-0.13;100.00;99883.31;5122402;27;20047;-78
2022/12/28 00:14:48;;;;;;;7.25;4.55;;;;;;;-0.31;100.00;99850.59;5119773;27;20551;-78
2022/12/28 00:17:14;;;;;;;6.47;4.30;;;;;;;-0.21;100.00;99867.75;5115887;27;20054;-78
2022/12/28 00:19:40;;;;;;;8.05;4.68;;;;;;;-0.20;100.00;99861.44;5127789;27;20047;-78
2022/12/28 00:22:07;;;;;;;8.05;5.80;;;;;;;-0.16;100.00;99860.31;5127542;27;20058;-78
2022/12/28 00:24:33;;;;;;;9.38;4.93;;;;;;;-0.21;100.00;99854.38;5127903;27;20047;-77
2022/12/28 00:27:00;;;;;;;10.98;4.90;;;;;;;-0.09;100.00;99855.41;5132050;27;20051;-78
2022/12/28 00:29:28;;;;;;;8.80;4.47;;;;;;;-0.07;100.00;99859.69;5128962;27;20043;-78
2022/12/28 00:31:57;;;;;;;9.35;5.20;;;;;;;-0.12;100.00;99850.25;5131896;27;20047;-78
2022/12/28 00:34:23;;;;;;;9.48;5.22;;;;;;;-0.01;100.00;99851.28;5127633;27;20054;-78
2022/12/28 00:36:51;;;;;;;9.45;4.10;;;;;;;-0.06;100.00;99847.19;5129665;27;20051;-78
2022/12/28 00:39:18;;;;;;;7.78;4.95;;;;;;;-0.10;100.00;99822.47;5127176;27;20501;-78
2022/12/28 00:41:44;;;;;;;9.40;5.18;;;;;;;0.08;100.00;99851.66;5129301;27;20055;-78
2022/12/28 00:44:11;;;;;;;10.68;4.88;;;;;;;0.07;100.00;99831.19;5128312;27;20454;-78
2022/12/28 00:46:41;;;;;;;13.27;4.97;;;;;;;0.08;100.00;99838.28;5129996;27;20043;-78
2022/12/28 00:49:09;;;;;;;;;;;;;;;0.19;100.00;99837.56;5125834;27;20092;-77
2022/12/28 00:51:35;;;;;;;6.88;4.78;;;;;;;0.06;100.00;99827.69;5120823;28;19919;-78
2022/12/28 00:54:02;;;;;;;9.82;4.45;;;;;;;0.09;100.00;99832.81;5127082;27;20050;-78
2022/12/28 00:56:28;;;;;;;9.13;4.78;;;;;;;0.10;100.00;99836.34;5128962;28;20046;-78
2022/12/28 00:58:56;;;;;;;7.25;4.15;;;;;;;0.01;100.00;99829.78;5128929;28;20047;-78
2022/12/28 01:01:23;;;;;;;11.02;5.05;;;;;;;0.03;100.00;99819.88;5129526;28;20103;-78
2022/12/28 01:03:52;;;;;;;7.57;3.85;;;;;;;-0.06;100.00;99807.97;5120857;28;20051;-77
2022/12/28 01:06:23;;;;;;;6.03;4.22;;;;;;;-0.07;100.00;99808.91;5126672;28;20070;-78
2022/12/28 01:08:49;;;;;;;8.45;3.78;;;;;;;0.06;100.00;99818.78;5127663;27;20044;-78
2022/12/28 01:11:19;;;;;;;8.98;4.40;;;;;;;0.13;100.00;99815.59;5128781;28;20058;-78
2022/12/28 01:13:46;;;;;;;7.40;4.22;;;;;;;0.08;100.00;99796.34;5127703;28;20062;-78
2022/12/28 01:16:15;;;;;;;10.73;4.13;;;;;;;0.17;100.00;99795.72;5127933;28;20051;-78
2022/12/28 01:18:46;;;;;;;7.65;3.88;;;;;;;0.13;100.00;99780.84;5122571;27;20039;-78
2022/12/28 01:21:20;;;;;;;7.93;3.67;;;;;;;0.18;100.00;99791.22;5129419;27;20043;-78
2022/12/28 01:23:48;;;;;;;7.93;4.28;;;;;;;0.19;100.00;99797.44;5117231;27;20205;-77
2022/12/28 01:26:16;;;;;;;7.40;4.22;;;;;;;0.30;100.00;99795.75;5126936;27;20047;-78
2022/12/28 01:28:42;;;;;;;4.75;3.33;;;;;;;0.20;100.00;99773.28;5127827;27;20051;-78
2022/12/28 01:31:11;;;;;;;6.38;3.50;;;;;;;0.31;100.00;99777.88;5122545;27;20446;-78
2022/12/28 01:33:38;;;;;;;7.30;3.88;;;;;;;0.23;100.00;99759.69;5123382;27;20046;-78
2022/12/28 01:36:09;;;;;;;5.85;3.33;;;;;;;0.29;100.00;99759.28;5132599;27;20043;-77
2022/12/28 01:38:37;;;;;;;8.38;4.18;;;;;;;0.17;100.00;99760.97;5122477;27;20146;-78
2022/12/28 01:41:09;;;;;;;6.43;3.78;;;;;;;0.18;100.00;99772.50;5129970;27;20053;-78
2022/12/28 01:43:39;;;;;;;5.72;3.03;;;;;;;0.19;100.00;99776.06;5122390;27;20046;-78
2022/12/28 01:46:07;;;;;;;7.35;2.95;;;;;;;0.13;100.00;99751.44;5122323;27;20047;-77
2022/12/28 01:48:36;;;;;;;4.68;3.05;;;;;;;0.24;100.00;99741.81;5126466;27;20528;-78
2022/12/28 01:51:03;;;;;;;5.32;3.55;;;;;;;0.46;100.00;99757.25;5132462;27;20039;-78
2022/12/28 01:53:30;;;;;;;6.75;3.85;;;;;;;0.40;100.00;99755.84;5131883;27;20053;-78
2022/12/28 01:55:58;;;;;;;7.13;3.30;;;;;;;0.52;100.00;99754.16;5132613;27;20055;-78
2022/12/28 01:58:28;;;;;;;4.18;3.17;;;;;;;0.44;100.00;99748.50;5130608;27;20498;-78
2022/12/28 02:00:55;;;;;;;8.60;3.47;;;;;;;0.47;100.00;99749.13;5132328;27;20213;-78
2022/12/28 02:03:24;;;;;;;4.45;3.13;;;;;;;0.47;100.00;99741.09;5129273;27;20054;-78
2022/12/28 02:05:53;;;;;;;5.65;3.28;;;;;;;0.45;100.00;99735.00;5131214;27;20430;-78
2022/12/28 02:08:26;;;;;;;6.22;3.33;;;;;;;0.55;100.00;99729.88;5124445;27;20099;-78
2022/12/28 02:10:55;;;;;;;6.50;2.72;;;;;;;0.60;100.00;99737.56;5132279;27;20512;-78
2022/12/28 02:13:24;;;;;;;7.00;2.67;;;;;;;0.47;100.00;99710.81;5129457;27;20051;-78
2022/12/28 02:15:51;;;;;;;9.80;2.80;;;;;;;0.68;100.00;99728.03;5130277;27;20047;-78
2022/12/28 02:18:20;;;;;;;3.95;2.63;;;;;;;0.61;100.00;99717.88;5124651;27;20055;-78
2022/12/28 02:21:10;;;;;;;5.78;2.75;;;;;;;0.65;100.00;99725.59;5126732;27;20047;-78
2022/12/28 02:23:47;;;;;;;9.15;2.90;;;;;;;0.59;100.00;99695.72;5135993;27;20047;-78
2022/12/28 02:26:36;;;;;;;4.40;2.17;;;;;;;0.67;100.00;99714.78;5146671;27;20042;-78
2022/12/28 02:29:17;;;;;;;5.03;2.58;;;;;;;0.72;100.00;99704.59;5124255;27;20079;-78
2022/12/28 02:31:56;;;;;;;7.85;2.92;;;;;;;0.74;100.00;99693.78;5129587;27;20043;-78
2022/12/28 02:34:27;;;;;;;6.68;3.10;;;;;;;0.91;100.00;99701.47;5135326;27;20054;-78
2022/12/28 02:37:01;;;;;;;4.10;2.78;;;;;;;0.80;100.00;99690.66;5125112;27;20047;-78
2022/12/28 02:39:34;;;;;;;6.35;2.80;;;;;;;0.68;100.00;99687.06;5134827;27;20489;-78
2022/12/28 02:42:01;;;;;;;7.50;3.00;;;;;;;0.64;100.00;99669.50;5131598;27;20043;-78
2022/12/28 02:50:07;;;;;;;5.32;2.28;;;;;;;0.81;100.00;99663.81;5126843;27;21504;-78
2022/12/28 02:52:49;;;;;;;7.10;2.80;;;;;;;0.99;100.00;99645.53;5129337;27;20043;-78
2022/12/28 02:58:32;;;;;;;3.70;2.45;;;;;;;1.14;100.00;99650.75;5127132;27;20062;-78
2022/12/28 03:01:16;;;;;;;4.28;2.20;;;;;;;1.24;100.00;99662.50;5123978;27;20069;-78
2022/12/28 03:03:55;;;;;;;4.32;2.42;;;;;;;1.19;100.00;99637.84;5121846;27;20043;-78
2022/12/28 03:09:32;;;;;;;4.82;2.45;;;;;;;1.35;100.00;99637.56;5129418;27;20054;-78
2022/12/28 03:12:04;;;;;;;4.85;2.75;;;;;;;1.36;100.00;99632.09;5133536;27;20482;-78
2022/12/28 03:14:38;;;;;;;6.63;2.85;;;;;;;1.30;100.00;99618.31;5116244;27;20051;-78
2022/12/28 03:31:13;;;;;;;3.53;2.03;;;;;;;1.61;100.00;99624.88;5124338;27;20054;-78
2022/12/28 03:33:44;;;;;;;4.40;2.20;;;;;;;1.65;100.00;99631.72;5129847;27;20133;-78
2022/12/28 03:36:16;;;;;;;3.60;2.28;;;;;;;1.56;100.00;99616.34;5124407;27;20409;-78
2022/12/28 03:38:54;;;;;;;5.25;2.50;;;;;;;1.62;100.00;99618.56;5131601;27;20077;-78
2022/12/28 03:41:29;;;;;;;4.25;2.15;;;;;;;1.72;100.00;99619.56;5132737;27;20495;-78
2022/12/28 03:44:03;;;;;;;2.97;2.13;;;;;;;1.76;100.00;99623.75;5128581;27;20058;-78
2022/12/28 03:46:36;;;;;;;7.10;2.85;;;;;;;1.64;100.00;99608.59;5128293;27;20051;-78
2022/12/28 03:49:04;;;;;;;2.55;1.67;;;;;;;1.69;100.00;99601.06;5120032;27;20051;-78
2022/12/28 03:51:32;;;;;;;6.60;2.15;;;;;;;1.67;100.00;99584.25;5122567;27;20058;-78
2022/12/28 03:53:58;;;;;;;5.38;1.80;;;;;;;1.72;100.00;99595.44;5119747;27;20043;-78
2022/12/28 03:56:27;;;;;;;3.70;1.95;;;;;;;1.83;100.00;99594.63;5132459;27;20050;-78
2022/12/28 03:58:56;;;;;;;3.92;1.92;;;;;;;1.85;100.00;99589.13;5128471;27;20039;-78
2022/12/28 04:01:23;;;;;;;6.68;1.67;;;;;;;1.78;100.00;99564.66;5127922;27;20070;-78
2022/12/28 04:03:55;;;;;;;4.82;1.65;;;;;;;1.93;100.00;99578.69;5130037;27;20049;-78
2022/12/28 04:06:23;;;;;;;7.93;1.67;;;;;;;1.95;100.00;99574.06;5132394;27;20062;-78
2022/12/28 04:08:53;;;;;;;4.05;1.70;;;;;;;2.08;100.00;99576.63;5128575;27;20074;-78
2022/12/28 04:11:19;;;;;;;2.85;2.20;;;;;;;2.06;100.00;99574.06;5125200;27;20414;-78
2022/12/28 04:13:46;;;;;;;4.15;1.73;;;;;;;2.03;100.00;99566.28;5128156;27;20039;-78
2022/12/28 04:16:14;;;;;;;2.85;1.42;;;;;;;2.08;100.00;99574.81;5125403;27;20055;-78
2022/12/28 04:18:41;;;;;;;6.53;1.73;;;;;;;2.08;100.00;99576.63;5124410;27;20047;-78
2022/12/28 04:21:08;;;;;;;3.15;1.98;;;;;;;2.13;100.00;99582.47;5130444;27;20061;-78
2022/12/28 04:23:36;;;;;;;6.43;2.00;;;;;;;2.22;100.00;99581.75;5132206;27;20038;-78
2022/12/28 04:26:05;;;;;;;2.70;1.83;;;;;;;2.25;100.00;99572.63;5124189;27;20055;-78
2022/12/28 04:28:32;;;;;;;1.15;1.05;;;;;;;2.26;100.00;99564.44;5129350;27;20039;-78
2022/12/28 04:31:00;;;;;;;2.55;1.40;;;;;;;2.30;100.00;99557.00;5127564;27;20047;-78
2022/12/28 04:33:27;;;;;;;2.38;1.48;;;;;;;2.34;100.00;99558.47;5126682;27;20042;-78
2022/12/28 04:35:54;;;;;;;3.55;1.40;;;;;;;2.39;100.00;99550.03;5126431;27;20406;-78
2022/12/28 04:38:21;;;;;;;2.70;1.60;;;;;;;2.44;100.00;99540.66;5130766;27;20047;-78
2022/12/28 04:40:49;;;;;;;3.78;1.52;;;;;;;2.39;100.00;99544.69;5121527;27;20047;-78
2022/12/28 04:43:15;;;;;;;5.15;1.52;;;;;;;2.37;100.00;99544.81;5118313;27;20043;-78
2022/12/28 04:45:42;;;;;;;2.97;1.75;;;;;;;2.38;100.00;99551.88;5128088;27;20414;-78
2022/12/28 04:48:08;;;;;;;2.65;1.70;;;;;;;2.34;100.00;99542.38;5130027;27;20084;-78
2022/12/28 04:50:36;;;;;;;2.17;1.30;;;;;;;2.40;100.00;99552.59;5128040;27;20505;-78
2022/12/28 04:53:03;;;;;;;6.00;1.58;;;;;;;2.29;100.00;99531.16;5130430;27;20043;-78
2022/12/28 04:55:29;;;;;;;3.45;1.35;;;;;;;2.38;100.00;99549.19;5131224;27;20051;-78
2022/12/28 04:57:57;;;;;;;10.25;1.80;;;;;;;2.35;100.00;99546.75;5131081;27;20062;-78
2022/12/28 05:00:23;;;;;;;1.83;1.35;;;;;;;2.41;100.00;99531.97;5122881;28;20058;-78
2022/12/28 05:02:50;;;;;;;3.17;1.45;;;;;;;2.48;100.00;99549.28;5128520;27;20644;-78
2022/12/28 05:05:17;;;;;;;2.25;1.25;;;;;;;2.44;100.00;99550.53;5132848;27;20047;-78
2022/12/28 05:07:43;;;;;;;5.72;3.05;;;;;;;2.46;100.00;99545.91;5154548;27;20058;-78
2022/12/28 05:10:10;;;;;;;3.40;1.80;;;;;;;2.44;100.00;99550.53;5127670;27;20073;-78
2022/12/28 05:12:36;;;;;;;4.50;1.63;;;;;;;2.38;100.00;99535.78;5141461;27;20046;-78
2022/12/28 05:15:05;;;;;;;4.40;1.60;;;;;;;2.43;100.00;99544.31;5135802;27;20043;-78
2022/12/28 05:17:32;;;;;;;6.03;1.77;;;;;;;2.34;100.00;99550.41;5133773;27;20075;-78
2022/12/28 05:19:59;;;;;;;7.78;2.08;;;;;;;2.25;100.00;99537.75;5133840;27;20039;-78
2022/12/28 05:22:25;;;;;;;3.25;1.73;;;;;;;2.41;100.00;99542.72;5129255;27;20046;-78
2022/12/28 05:24:52;;;;;;;2.00;1.13;;;;;;;2.40;100.00;99547.22;5134864;27;20047;-78
2022/12/28 05:27:18;;;;;;;2.47;1.55;;;;;;;2.33;100.00;99537.97;5135255;27;20054;-78
2022/12/28 05:29:45;;;;;;;4.03;1.95;;;;;;;2.44;100.00;99548.69;5126189;27;20052;-78
2022/12/28 05:32:13;;;;;;;2.70;2.10;;;;;;;2.38;100.00;99538.47;5130741;27;20052;-78
2022/12/28 05:34:39;;;;;;;2.58;1.63;;;;;;;2.41;100.00;99550.75;5133015;27;20043;-78
2022/12/28 05:37:06;;;;;;;3.83;1.55;;;;;;;2.52;100.00;99550.75;5132665;27;20047;-78
2022/12/28 05:39:38;;;;;;;4.57;1.48;;;;;;;2.58;100.00;99549.44;5127486;27;20054;-78
2022/12/28 05:42:05;;;;;;;6.15;1.90;;;;;;;2.57;100.00;99545.03;5127069;27;20047;-78
2022/12/28 05:44:31;;;;;;;2.38;1.15;;;;;;;2.44;100.00;99523.72;5126961;27;20051;-78
2022/12/28 05:46:58;;;;;;;4.72;1.98;;;;;;;2.61;100.00;99528.53;5134918;27;20047;-78
2022/12/28 05:49:26;;;;;;;2.40;1.65;;;;;;;2.57;100.00;99536.97;5136598;27;20036;-77
2022/12/28 05:51:52;;;;;;;3.97;1.63;;;;;;;2.56;100.00;99530.75;5132197;27;20058;-77
2022/12/28 05:54:19;;;;;;;3.53;1.30;;;;;;;2.60;100.00;99536.72;5133971;27;20043;-78
2022/12/28 05:56:46;;;;;;;3.17;1.45;;;;;;;2.57;100.00;99527.06;5134553;27;20043;-78
2022/12/28 05:59:15;;;;;;;2.65;1.52;;;;;;;2.54;100.00;99523.81;5128170;27;20397;-77
2022/12/28 06:01:44;;;;;;;1.88;1.20;;;;;;;2.61;100.00;99527.69;5132430;27;20054;-78
2022/12/28 06:04:20;;;;;;;1.95;1.40;;;;;;;2.56;100.00;99513.78;5123524;27;20513;-78
2022/12/28 06:06:48;;;;;;;3.08;1.42;;;;;;;2.58;100.00;99511.84;5132425;27;20049;-78
2022/12/28 06:09:15;;;;;;;4.07;1.42;;;;;;;2.61;100.00;99516.97;5133666;27;20058;-78
2022/12/28 06:11:41;;;;;;;2.45;1.38;;;;;;;2.75;100.00;99513.13;5125566;27;20055;-77
2022/12/28 06:14:09;;;;;;;1.42;1.13;;;;;;;2.80;100.00;99522.53;5125497;27;20043;-78
2022/12/28 06:16:37;;;;;;;1.30;1.20;;;;;;;2.89;100.00;99525.41;5123344;27;20056;-78
2022/12/28 06:19:06;;;;;;;5.72;1.23;;;;;;;2.87;100.00;99505.91;5132820;27;20051;-78
2022/12/28 06:21:36;;;;;;;4.18;1.92;;;;;;;2.95;100.00;99511.47;5133521;27;20047;-78
2022/12/28 06:24:05;;;;;;;1.75;1.20;;;;;;;3.02;100.00;99510.00;5127983;27;20062;-78
2022/12/28 06:26:34;;;;;;;3.25;1.40;;;;;;;3.08;100.00;99512.16;5134120;27;20055;-78
2022/12/28 06:29:02;;;;;;;1.77;1.05;;;;;;;3.12;100.00;99500.19;5127758;27;20050;-78
2022/12/28 06:31:30;;;;;;;2.67;1.00;;;;;;;3.07;100.00;99507.78;5135896;27;20129;-77
2022/12/28 06:33:58;;;;;;;7.07;1.85;;;;;;;3.12;100.00;99502.88;5128950;27;20051;-78
2022/12/28 06:36:27;;;;;;;5.45;1.33;;;;;;;3.13;100.00;99488.47;5122664;27;20117;-77
2022/12/28 06:38:55;;;;;;;1.55;1.00;;;;;;;3.25;100.00;99504.50;5126474;27;20047;-78
2022/12/28 06:41:24;;;;;;;2.30;1.30;;;;;;;3.30;100.00;99497.78;5131831;27;20053;-78
2022/12/28 06:43:51;;;;;;;3.97;1.38;;;;;;;3.33;100.00;99500.19;5133962;27;20491;-78
2022/12/28 06:46:20;;;;;;;1.52;1.00;;;;;;;3.26;100.00;99466.78;5115329;28;20055;-77
2022/12/28 06:48:47;;;;;;;3.10;1.23;;;;;;;3.42;100.00;99474.38;5130354;27;20058;-78
2022/12/28 06:51:16;;;;;;;4.15;1.10;;;;;;;3.47;100.00;99468.63;5134885;27;20043;-77
2022/12/28 06:53:43;;;;;;;4.72;1.42;;;;;;;3.50;100.00;99479.09;5136425;27;20145;-78
2022/12/28 06:56:12;;;;;;;3.25;1.00;;;;;;;3.57;100.00;99482.09;5134743;27;20482;-77
2022/12/28 06:58:40;;;;;;;1.70;1.23;;;;;;;3.57;100.00;99480.28;5132777;27;20049;-78
2022/12/28 07:01:07;;;;;;;3.15;1.58;;;;;;;3.56;100.00;99469.66;5124190;27;20066;-77
2022/12/28 07:03:34;;;;;;;4.75;1.83;;;;;;;3.59;100.00;99464.84;5128671;27;20741;-77
2022/12/28 07:06:02;;;;;;;2.08;1.30;;;;;;;3.69;100.00;99471.16;5132901;27;20047;-77
2022/12/28 07:08:30;;;;;;;1.55;1.25;;;;;;;3.55;100.00;99449.97;5132379;27;20137;-77
2022/12/28 07:11:01;;;;;;;1.58;1.15;;;;;;;3.67;100.00;99461.50;5124485;27;20047;-77
2022/12/28 07:13:28;;;;;;;2.15;1.17;;;;;;;3.73;100.00;99466.34;5126227;27;20077;-78
2022/12/28 07:15:56;;;;;;;3.90;1.30;;;;;;;3.71;100.00;99462.94;5125470;27;20040;-78
2022/12/28 07:18:22;;;;;;;3.13;1.40;;;;;;;3.79;100.00;99451.50;5132858;27;20054;-77
2022/12/28 07:20:49;;;;;;;3.97;1.63;;;;;;;3.78;100.00;99455.19;5123498;27;20734;-78
2022/12/28 07:23:15;;;;;;;2.47;1.20;;;;;;;3.85;100.00;99477.88;5132238;27;20085;-77
2022/12/28 07:25:42;;;;;;;4.72;1.63;;;;;;;3.88;100.00;99465.03;5124093;27;20059;-78
2022/12/28 07:28:08;;;;;;;8.38;1.45;;;;;;;3.74;100.00;99446.53;5131823;27;20062;-78
2022/12/28 07:30:35;;;;;;;1.90;0.98;;;;;;;3.93;100.00;99469.13;5130235;27;20224;-78
2022/12/28 07:33:04;;;;;;;4.60;1.60;;;;;;;3.95;100.00;99470.69;5126787;27;20141;-78
2022/12/28 07:35:30;;;;;;;3.72;1.35;;;;;;;3.82;100.00;99441.31;5132199;27;20055;-78
2022/12/28 07:37:57;;;;;;;2.45;1.13;;;;;;;3.83;100.00;99443.03;5123726;27;20400;-78
2022/12/28 07:40:23;;;;;;;2.40;1.00;;;;;;;3.85;100.00;99442.91;5123526;27;20414;-79
2022/12/28 07:42:50;;;;;;;2.47;1.00;;;;;;;3.98;100.00;99458.81;5125217;27;20208;-78
2022/12/28 07:45:16;;;;;;;3.40;1.40;;;;;;;3.99;100.00;99463.19;5129771;27;20406;-78
2022/12/28 07:47:43;;;;;;;2.80;1.10;;;;;;;4.00;100.00;99443.38;5129590;27;20094;-78
2022/12/28 07:50:11;;;;;;;3.08;1.40;;;;;;;4.14;100.00;99461.88;5123274;27;20058;-78
2022/12/28 07:52:37;;;;;;;3.13;1.05;;;;;;;4.10;100.00;99444.28;5129713;27;20047;-78
2022/12/28 07:55:04;;;;;;;4.30;1.30;;;;;;;4.11;100.00;99448.69;5122779;27;20047;-78
2022/12/28 07:57:31;;;;;;;3.08;1.48;;;;;;;4.20;100.00;99455.94;5122664;27;20062;-78
2022/12/28 07:59:58;;;;;;;3.47;1.38;;;;;;;4.21;100.00;99448.69;5132609;27;20050;-78
2022/12/28 08:02:24;;;;;;;1.42;1.20;;;;;;;4.19;100.00;99440.75;5129407;27;20138;-77
2022/12/28 08:04:51;;;;;;;5.90;1.48;;;;;;;4.22;100.00;99445.03;5128488;27;20387;-77
2022/12/28 08:07:19;;;;;;;1.67;1.08;;;;;;;4.20;100.00;99434.41;5116384;27;20048;-77
2022/12/28 08:09:45;;;;;;;1.52;1.10;;;;;;;4.19;100.00;99432.69;5123768;27;20486;-77
2022/12/28 08:12:12;;;;;;;5.55;1.55;;;;;;;4.25;100.00;99431.28;5112407;27;20043;-77
2022/12/28 08:14:38;;;;;;;2.83;1.35;;;;;;;4.38;100.00;99439.09;5131541;27;20051;-77
2022/12/28 08:17:05;;;;;;;4.57;1.30;;;;;;;4.30;100.00;99412.88;5130557;27;20074;-78
2022/12/28 08:19:31;;;;;;;3.33;1.75;;;;;;;4.32;100.00;99421.69;5131150;27;20054;-77
2022/12/28 08:21:58;;;;;;;4.47;2.33;;;;;;;4.41;100.00;99438.81;5127021;27;20659;-77
2022/12/28 08:24:26;;;;;;;4.57;1.73;;;;;;;4.48;100.00;99439.13;5118978;27;20407;-78
2022/12/28 08:26:52;;;;;;;3.70;1.60;;;;;;;4.44;100.00;99425.09;5128723;27;20062;-78
2022/12/28 08:29:21;;;;;;;3.22;1.05;;;;;;;4.49;100.00;99417.47;5125775;27;20406;-79
2022/12/28 08:31:49;;;;;;;3.60;1.57;;;;;;;4.65;100.00;99424.13;5128711;27;20061;-79
2022/12/28 08:34:18;;;;;;;1.73;1.00;;;;;;;4.52;100.00;99402.88;5128840;27;20054;-81
2022/12/28 08:36:45;;;;;;;4.00;1.27;;;;;;;4.57;100.00;99398.75;5131514;27;20058;-81
2022/12/28 08:39:11;;;;;;;5.82;1.17;;;;;;;4.57;100.00;99397.91;5130578;27;20051;-80
2022/12/28 08:41:39;;;;;;;3.58;1.10;;;;;;;4.72;100.00;99409.13;5120334;27;20054;-81
2022/12/28 08:44:06;;;;;;;3.65;2.05;;;;;;;4.74;100.00;99407.13;5121446;27;20054;-81
2022/12/28 08:46:35;;;;;;;2.85;1.27;;;;;;;4.81;100.00;99410.09;5129620;27;20506;-81
2022/12/28 08:49:02;;;;;;;2.30;1.17;;;;;;;4.87;100.00;99413.06;5121283;27;20047;-81
2022/12/28 08:51:32;;;;;;;2.58;1.33;;;;;;;4.85;100.00;99423.16;5115402;27;20378;-81
2022/12/28 08:53:59;;;;;;;2.97;1.17;;;;;;;4.90;100.00;99410.09;5130901;27;20127;-81
2022/12/28 08:56:28;;;;;;;2.92;1.27;;;;;;;5.03;100.00;99415.22;5129116;27;20066;-81
2022/12/28 08:58:57;;;;;;;4.05;1.38;;;;;;;4.97;100.00;99399.59;5129937;27;20541;-81
2022/12/28 09:01:27;;;;;;;2.43;1.80;;;;;;;4.99;100.00;99399.47;5128613;27;20074;-82
2022/12/28 09:03:54;;;;;;;3.27;1.07;;;;;;;5.04;100.00;99403.41;5122295;28;20403;-81
2022/12/28 09:06:23;;;;;;;1.42;0.95;;;;;;;5.04;100.00;99411.50;5129456;27;20301;-79
2022/12/28 09:08:51;;;;;;;1.92;0.93;;;;;;;5.05;100.00;99398.88;5128783;27;20051;-79
2022/12/28 09:11:18;;;;;;;2.72;1.30;;;;;;;5.10;100.00;99410.94;5130377;27;20051;-79
2022/12/28 09:13:45;;;;;;;3.60;1.50;;;;;;;5.04;100.00;99379.16;5133294;27;20043;-79
2022/12/28 09:16:15;;;;;;;2.20;1.10;;;;;;;5.14;100.00;99393.47;5130696;28;20481;-79
2022/12/28 09:18:43;;;;;;;2.58;1.45;;;;;;;5.13;100.00;99386.41;5121644;27;20109;-79
2022/12/28 09:21:12;;;;;;;1.77;0.95;;;;;;;5.23;100.00;99405.22;5129222;27;20459;-79
2022/12/28 09:23:39;;;;;;;4.38;1.23;;;;;;;5.35;100.00;99410.47;5127344;27;20043;-79
2022/12/28 09:26:07;;;;;;;3.25;1.27;;;;;;;5.42;100.00;99419.66;5129782;28;20057;-79
2022/12/28 09:28:34;;;;;;;4.88;1.50;;;;;;;5.44;100.00;99421.22;5129596;27;20055;-79
2022/12/28 09:31:03;;;;;;;4.10;1.25;;;;;;;5.58;100.00;99424.47;5131095;27;20514;-79
2022/12/28 09:36:16;;;;;;;1.85;1.15;;;;;;;5.57;100.00;99409.25;5125601;27;20055;-79
2022/12/28 09:38:43;;;;;;;2.28;1.38;;;;;;;5.63;99.42;99404.16;5128141;27;20043;-79
2022/12/28 09:41:11;;;;;;;2.20;0.98;;;;;;;5.67;100.00;99404.69;5125295;28;20051;-80
2022/12/28 09:43:41;;;;;;;13.40;1.48;;;;;;;5.78;99.72;99406.34;5129645;27;20047;-80
2022/12/28 09:46:09;;;;;;;4.78;1.60;;;;;;;5.96;98.01;99406.41;5119977;27;20047;-79
2022/12/28 09:48:40;;;;;;;12.70;2.45;;;;;;;5.98;99.12;99416.09;5135254;27;20135;-79
2022/12/28 09:51:08;;;;;;;1.60;1.00;;;;;;;5.87;99.17;99381.16;5122884;27;20051;-79
2022/12/28 09:53:35;;;;;;;6.65;1.90;;;;;;;5.98;98.79;99386.41;5129565;27;20104;-77
2022/12/28 09:56:06;;;;;;;1.42;0.88;;;;;;;6.12;96.66;99393.16;5132938;27;20043;-77
2022/12/28 09:58:37;;;;;;;3.47;1.38;;;;;;;6.19;96.09;99401.50;5134339;27;20057;-80
2022/12/28 10:01:09;;;;;;;1.85;1.00;;;;;;;6.16;96.45;99382.91;5129726;27;20058;-80
2022/12/28 10:03:39;;;;;;;2.10;1.02;;;;;;;6.26;96.41;99394.47;5130304;27;20045;-80
2022/12/28 10:06:11;;;;;;;5.10;1.23;;;;;;;6.25;96.61;99381.13;5130197;27;20051;-80
2022/12/28 10:08:42;;;;;;;2.58;0.93;;;;;;;6.31;95.11;99386.78;5133344;27;20050;-80
2022/12/28 10:11:09;;;;;;;1.35;0.75;;;;;;;6.30;94.45;99368.88;5144454;27;20066;-80
2022/12/28 10:13:38;;;;;;;4.40;1.48;;;;;;;6.37;96.32;99379.94;5126714;27;20130;-76
2022/12/28 10:16:06;;;;;;;5.15;1.67;;;;;;;6.34;94.30;99367.59;5135232;27;20051;-80
2022/12/28 10:18:34;;;;;;;4.10;1.50;;;;;;;6.38;94.29;99347.38;5135994;27;20448;-80
2022/12/28 10:21:02;;;;;;;2.80;1.30;;;;;;;6.59;97.52;99373.22;5134642;27;20366;-77
2022/12/28 10:23:34;;;;;;;3.28;1.63;;;;;;;6.54;95.59;99365.59;5132769;27;20047;-78
2022/12/28 10:26:02;;;;;;;2.40;1.25;;;;;;;6.52;94.24;99345.16;5125103;27;20069;-78
2022/12/28 10:28:41;;;;;;;2.38;1.27;;;;;;;6.61;95.79;99346.06;5133222;27;20039;-78
2022/12/28 10:31:10;;;;;;;2.67;1.20;;;;;;;6.62;95.30;99345.91;5133382;27;20498;-78
2022/12/28 10:33:39;;;;;;;2.42;1.33;;;;;;;6.71;96.87;99349.53;5124288;27;20055;-78
2022/12/28 10:36:12;;;;;;;2.97;1.30;;;;;;;6.65;94.37;99334.78;5133891;27;20058;-79
2022/12/28 10:38:42;;;;;;;2.88;1.10;;;;;;;6.70;93.07;99323.53;5123768;27;20039;-80
2022/12/28 10:41:12;;;;;;;1.98;0.93;;;;;;;6.81;95.49;99336.78;5133727;27;20426;-79
2022/12/28 10:43:40;;;;;;;5.00;1.55;;;;;;;6.95;94.92;99348.88;5130724;27;20127;-80
2022/12/28 10:46:16;;;;;;;4.10;1.40;;;;;;;7.04;93.67;99337.13;5130120;27;20047;-80
2022/12/28 10:48:48;;;;;;;5.22;1.80;;;;;;;7.21;93.47;99339.94;5124565;27;20433;-79
2022/12/28 10:51:17;;;;;;;5.07;2.08;;;;;;;7.36;93.53;99326.69;5132380;27;20120;-79
2022/12/28 10:53:46;;;;;;;2.45;1.08;;;;;;;7.36;92.77;99307.75;5132593;27;20083;-79
2022/12/28 10:56:25;;;;;;;3.45;1.50;;;;;;;7.42;93.42;99299.84;5133424;27;20051;-80
2022/12/28 10:58:53;;;;;;;2.22;1.25;;;;;;;7.49;92.76;99305.44;5129638;27;20048;-79
2022/12/28 11:01:25;;;;;;;1.80;1.20;;;;;;;7.32;92.52;99288.31;5128374;27;20051;-79
2022/12/28 11:04:02;;;;;;;2.30;1.25;;;;;;;7.51;90.45;99316.09;5132281;27;20390;-79
2022/12/28 11:06:31;;;;;;;3.80;1.10;;;;;;;7.42;89.53;99285.47;5133131;27;20040;-80
2022/12/28 11:09:06;;;;;;;14.55;3.17;;;;;;;7.63;91.54;99290.44;5133189;27;20055;-79
2022/12/28 11:11:33;;;;;;;4.05;2.03;;;;;;;7.60;89.45;99277.25;5133272;27;20135;-79
2022/12/28 11:14:04;;;;;;;5.30;2.30;;;;;;;7.60;90.18;99267.31;5122770;27;20055;-79
2022/12/28 11:16:36;;;;;;;5.32;1.70;;;;;;;7.86;92.81;99277.19;5132902;27;20505;-78
2022/12/28 11:19:03;;;;;;;9.25;1.30;;;;;;;7.87;88.53;99265.34;5133235;27;20483;-79
2022/12/28 11:21:32;;;;;;;3.33;1.48;;;;;;;8.07;90.95;99268.63;5132276;27;20043;-79
2022/12/28 11:23:59;;;;;;;2.75;1.55;;;;;;;7.97;87.67;99266.03;5124357;27;20372;-79
2022/12/28 11:26:27;;;;;;;1.55;1.10;;;;;;;7.81;86.04;99276.81;5132011;27;20432;-79
2022/12/28 11:28:55;;;;;;;4.50;1.52;;;;;;;7.67;88.85;99240.41;5131797;27;20118;-79
2022/12/28 11:31:27;;;;;;;3.45;1.73;;;;;;;7.62;88.98;99234.66;5132741;27;20043;-79
2022/12/28 11:33:56;;;;;;;5.65;2.15;;;;;;;7.55;90.27;99239.03;5132172;27;20043;-79
2022/12/28 11:36:28;;;;;;;2.28;1.60;;;;;;;7.69;91.63;99246.50;5133046;27;20046;-78
2022/12/28 11:38:57;;;;;;;4.40;1.10;;;;;;;7.65;91.40;99250.56;5131949;27;20055;-79
2022/12/28 11:41:42;;;;;;;2.50;1.42;;;;;;;7.48;92.05;99219.88;5131662;27;20500;-78
2022/12/28 11:44:20;;;;;;;6.10;2.35;;;;;;;7.64;93.59;99243.47;5125366;27;20398;-78
2022/12/28 11:47:00;;;;;;;4.78;1.63;;;;;;;7.65;96.22;99222.66;5132712;27;20047;-78
2022/12/28 11:49:34;;;;;;;2.45;1.70;;;;;;;7.78;95.78;99231.13;5121909;27;20046;-78
2022/12/28 11:52:36;;;;;;;4.75;1.88;;;;;;;7.84;96.00;99232.34;5122080;27;20047;-79
2022/12/28 11:55:49;;;;;;;6.57;2.35;;;;;;;8.01;94.72;99228.66;5130697;27;20043;-78
2022/12/28 11:58:44;;;;;;;2.78;1.55;;;;;;;8.10;94.51;99233.06;5129732;27;20107;-79
2022/12/28 12:01:35;;;;;;;2.28;1.50;;;;;;;8.08;96.78;99221.53;5130363;27;20173;-78
2022/12/28 12:04:37;;;;;;;4.75;1.63;;;;;;;8.12;93.47;99187.72;5128597;27;20050;-78
2022/12/28 12:07:44;;;;;;;2.85;1.48;;;;;;;8.38;93.36;99202.94;5126206;27;20051;-79
2022/12/28 12:10:32;;;;;;;2.08;1.25;;;;;;;8.50;89.85;99207.03;5128975;27;20050;-80
2022/12/28 12:13:00;;;;;;;3.05;1.42;;;;;;;8.58;91.40;99200.78;5127507;27;20054;-79